| Date | Time | Temp. (oF) | Dew Point (oF) | Rel. Hum. (%) | Press. (in.) | Wind Dir. | Wind Speed (mph) | Hourly Rainfall (in.) |
|
|---|---|---|---|---|---|---|---|---|---|
| 1 | 08/16 | 00:00 | 73 | 69 | 90 | 30.13 | NNE | 0 | 0.00 |
| 2 | 08/15 | 23:00 | 75 | 69 | 83 | 30.13 | SE | 0 | 0.00 |
| 3 | 08/15 | 22:00 | 77 | 69 | 78 | 30.13 | NE | 0 | 0.00 |
| 4 | 08/15 | 21:00 | 78 | 67 | 71 | 30.11 | NNE | 1 | 0.00 |
| 5 | 08/15 | 20:00 | 81 | 67 | 64 | 30.09 | NW | 0 | 0.00 |
| 6 | 08/15 | 19:00 | 83 | 68 | 62 | 30.08 | N | 2 | 0.00 |
| 7 | 08/15 | 18:00 | 85 | 67 | 57 | 30.08 | NNW | 4 | 0.00 |
| 8 | 08/15 | 17:00 | 84 | 69 | 61 | 30.07 | N | 7 | 0.00 |
| 9 | 08/15 | 16:00 | 85 | 69 | 61 | 30.07 | ENE | 4 | 0.00 |
| 10 | 08/15 | 15:00 | 83 | 69 | 65 | 30.08 | N | 4 | 0.00 |
| 11 | 08/15 | 14:00 | 81 | 68 | 67 | 30.09 | NNE | 6 | 0.00 |
| 12 | 08/15 | 13:00 | 80 | 69 | 70 | 30.09 | NW | 9 | 0.00 |
| 13 | 08/15 | 12:00 | 81 | 70 | 71 | 30.10 | WSW | 7 | 0.00 |
| 14 | 08/15 | 11:00 | 79 | 70 | 76 | 30.09 | NW | 4 | 0.00 |
| 15 | 08/15 | 10:00 | 77 | 70 | 80 | 30.09 | NNE | 4 | 0.00 |
| 16 | 08/15 | 09:00 | 75 | 70 | 85 | 30.08 | NNE | 7 | 0.00 |
| 17 | 08/15 | 08:00 | 74 | 71 | 92 | 30.07 | E | 4 | 0.00 |
| 18 | 08/15 | 07:00 | 74 | 72 | 96 | 30.06 | NNW | 2 | 0.00 |
| 19 | 08/15 | 06:00 | 74 | 72 | 96 | 30.04 | NW | 1 | 0.00 |
| 20 | 08/15 | 05:00 | 75 | 74 | 97 | 30.02 | NNW | 2 | 0.00 |
| 21 | 08/15 | 04:00 | 75 | 74 | 98 | 30.00 | NNE | 0 | 0.00 |
| 22 | 08/15 | 03:00 | 76 | 75 | 99 | 29.99 | NW | 0 | 0.00 |
| 23 | 08/15 | 02:00 | 76 | 75 | 98 | 29.99 | N | 0 | 0.00 |
| 24 | 08/15 | 01:00 | 76 | 75 | 97 | 29.99 | ENE | 0 | 0.00 |